»·PEaware :: 3A-MCH TTCP-TFFF

3A-MCH :: TTCP-TFFF

FLIGHT INFORMATION

Flight Status: Arrived
Operator: Privately registered:
Monaco
More flights under this callsign
Pilot: Timothy W. (9658)
Aircraft: ECLIPSE 500
(EA50)
More flights by this aircraft type
Origin: TTCP Crown Point
Trinidad and Tobago
Destination: TFFF Le Lamentin
Martinique
More flights between these airports :: More routes between these airports
Route: TABEX R515 LOGAN A312 DAMOV DAMO6K
File this flight plan on PilotEdge
Remarks:
Altitude:
(Current/Filed)
23,000ft
Speed:
(Current/Filed)
374kts
Departed: 02-Aug-18 11:42 AM
Arrived: 02-Aug-18 12:48 PM
Distance/Time
Traveled:
207nm/1:06
Distance/Time
To Go:
Arrived

Flight Plot

Page will automatically refresh every two minutes.

Flight plan parsing failed; only flown route is shown


Map Options




Map Legend


Flown Route
Filed Route
Departure Airport
Arrival Airport
Navaid (VOR, NDB)
Fix

Horizontal Profiles

Position Reports

Time Latitude Longitude Heading Altitude Ground
Speed
02-Aug-18 11:35 11.151825 -60.840530 4 36ft 0kts
02-Aug-18 11:36 11.151825 -60.840530 4 36ft 0kts
02-Aug-18 11:37 11.151825 -60.840530 4 36ft 0kts
02-Aug-18 11:38 11.151825 -60.840530 4 36ft 0kts
02-Aug-18 11:39 11.151825 -60.840530 4 36ft 0kts
02-Aug-18 11:40 11.151865 -60.840526 8 35ft 1kts
02-Aug-18 11:41 11.150541 -60.841834 228 35ft 14kts
02-Aug-18 11:42 11.150500 -60.844050 94 31ft 19kts
02-Aug-18 11:43 11.148623 -60.816939 79 752ft 141kts
02-Aug-18 11:44 11.181845 -60.791320 38 3044ft 153kts
02-Aug-18 11:45 11.217919 -60.767959 38 5136ft 157kts
02-Aug-18 11:46 11.255019 -60.743921 38 7095ft 161kts
02-Aug-18 11:47 11.292845 -60.719401 38 8919ft 165kts
02-Aug-18 11:48 11.332093 -60.693949 38 10650ft 169kts
02-Aug-18 11:49 11.372067 -60.668013 37 12263ft 173kts
02-Aug-18 11:50 11.411416 -60.642464 37 13698ft 178kts
02-Aug-18 11:51 11.451250 -60.616599 37 15034ft 182kts
02-Aug-18 11:52 11.496837 -60.586991 37 16435ft 187kts
02-Aug-18 11:53 11.540766 -60.558449 36 17672ft 191kts
02-Aug-18 11:54 11.585404 -60.528986 37 18859ft 193kts
02-Aug-18 11:55 11.630236 -60.498173 37 19958ft 197kts
02-Aug-18 11:56 11.676153 -60.466612 37 21001ft 201kts
02-Aug-18 11:57 11.722962 -60.434427 37 21987ft 205kts
02-Aug-18 11:58 11.770263 -60.401891 37 22912ft 208kts
02-Aug-18 11:59 11.818437 -60.368742 36 23788ft 211kts
02-Aug-18 12:00 11.867030 -60.335288 36 24611ft 214kts
02-Aug-18 12:01 11.916688 -60.301085 36 25397ft 217kts
02-Aug-18 12:02 11.966776 -60.266572 36 26137ft 220kts
02-Aug-18 12:03 12.017706 -60.231462 36 26842ft 223kts
02-Aug-18 12:04 12.071806 -60.194126 36 26996ft 250kts
02-Aug-18 12:05 12.133379 -60.153220 19 26989ft 280kts
02-Aug-18 12:06 12.211438 -60.171868 343 26996ft 306kts
02-Aug-18 12:07 12.292506 -60.200045 343 26997ft 312kts
02-Aug-18 12:08 12.374178 -60.228864 343 26999ft 314kts
02-Aug-18 12:09 12.455327 -60.257623 343 27001ft 315kts
02-Aug-18 12:10 12.526287 -60.282810 343 27006ft 316kts
02-Aug-18 12:11 12.621312 -60.316573 343 27013ft 317kts
02-Aug-18 12:12 12.704325 -60.346095 343 26288ft 317kts
02-Aug-18 12:13 12.786517 -60.375350 343 24833ft 310kts
02-Aug-18 12:14 12.867266 -60.404105 343 23426ft 305kts
02-Aug-18 12:15 12.946487 -60.432332 343 22019ft 299kts
02-Aug-18 12:16 13.023540 -60.459811 343 20618ft 289kts
02-Aug-18 12:17 13.098413 -60.486516 344 19210ft 281kts
02-Aug-18 12:18 13.171052 -60.512453 344 17809ft 276kts
02-Aug-18 12:19 13.242597 -60.538011 344 16411ft 272kts
02-Aug-18 12:20 13.314007 -60.563533 344 15076ft 270kts
02-Aug-18 12:21 13.384175 -60.588623 344 14061ft 268kts
02-Aug-18 12:22 13.454360 -60.613738 344 13060ft 266kts
02-Aug-18 12:23 13.523766 -60.638721 344 12066ft 264kts
02-Aug-18 12:24 13.592660 -60.663639 344 11430ft 262kts
02-Aug-18 12:25 13.661076 -60.688361 344 10932ft 260kts
02-Aug-18 12:26 13.728152 -60.712600 344 10440ft 258kts
02-Aug-18 12:27 13.796249 -60.737216 344 9939ft 256kts
02-Aug-18 12:28 13.862784 -60.761278 344 9445ft 253kts
02-Aug-18 12:29 13.928945 -60.785221 344 8951ft 251kts
02-Aug-18 12:30 13.994008 -60.808787 344 8462ft 249kts
02-Aug-18 12:31 14.058966 -60.832326 344 7970ft 247kts
02-Aug-18 12:32 14.123527 -60.855735 344 7479ft 245kts
02-Aug-18 12:33 14.187129 -60.878809 344 6991ft 243kts
02-Aug-18 12:34 14.250495 -60.901813 344 6501ft 241kts
02-Aug-18 12:35 14.313827 -60.924826 344 6012ft 242kts
02-Aug-18 12:36 14.344249 -60.976399 259 5516ft 248kts
02-Aug-18 12:37 14.351393 -61.044341 290 5051ft 248kts
02-Aug-18 12:38 14.375043 -61.111500 290 4561ft 247kts
02-Aug-18 12:39 14.398273 -61.177932 289 4054ft 246kts
02-Aug-18 12:40 14.443160 -61.228339 332 3560ft 240kts
02-Aug-18 12:41 14.502077 -61.220575 20 3065ft 191kts
02-Aug-18 12:42 14.547525 -61.208228 22 2546ft 159kts
02-Aug-18 12:43 14.562263 -61.174017 84 2071ft 142kts
02-Aug-18 12:44 14.568629 -61.134066 83 1999ft 141kts
02-Aug-18 12:45 14.575134 -61.095652 83 1497ft 123kts
02-Aug-18 12:46 14.579757 -61.068750 85 993ft 87kts
02-Aug-18 12:47 14.584143 -61.044371 85 622ft 87kts
02-Aug-18 12:48 14.588220 -61.020189 85 136ft 86kts
02-Aug-18 12:49 14.590372 -61.010222 117 22ft 0kts
02-Aug-18 12:50 14.590372 -61.010222 117 22ft 0kts
02-Aug-18 12:51 14.590076 -61.009521 100 22ft 14kts
02-Aug-18 12:52 14.591614 -61.005512 351 19ft 13kts
02-Aug-18 12:53 14.593485 -61.004833 348 19ft 3kts
02-Aug-18 12:54 14.593548 -61.004846 350 19ft 0kts
02-Aug-18 12:55 14.593548 -61.004846 350 19ft 0kts
02-Aug-18 12:56 14.593548 -61.004846 350 19ft 0kts
02-Aug-18 12:57 14.593548 -61.004846 350 19ft 0kts
02-Aug-18 12:58 14.593548 -61.004846 350 19ft 0kts
02-Aug-18 12:59 14.593548 -61.004846 350 19ft 0kts
02-Aug-18 13:00 14.593548 -61.004846 350 19ft 0kts
02-Aug-18 13:01 14.593548 -61.004846 350 19ft 0kts
02-Aug-18 13:02 14.593548 -61.004846 350 19ft 0kts
02-Aug-18 13:03 14.593548 -61.004846 350 19ft 0kts
02-Aug-18 13:04 14.593548 -61.004846 350 19ft 0kts

Navigation Log

Ident Type
Flight plan parsing failed, navigation log unavailable